Time;durP1;ratioP1;P1;durP2;ratioP2;P2;SDS_P1;SDS_P2;PMS_P1;PMS_P2;Temp;Humidity;BMP_temperature;BMP_pressure;BME280_temperature;BME280_humidity;BME280_pressure;Samples;Min_cycle;Max_cycle;Signal;HPM_P1;HPM_P2
2022/12/19 00:02:23;;;;;;;59.37;22.80;;;;;;;7.62;63.03;101727.84;5129772;27;20047;-69
2022/12/19 00:04:48;;;;;;;60.23;23.27;;;;;;;7.49;63.79;101729.38;5110740;27;20474;-70
2022/12/19 00:07:13;;;;;;;58.67;24.53;;;;;;;8.00;63.36;101711.97;5112971;28;20060;-69
2022/12/19 00:09:39;;;;;;;66.40;24.77;;;;;;;8.24;61.43;101711.44;5113640;28;20471;-69
2022/12/19 00:12:04;;;;;;;63.17;23.83;;;;;;;7.81;62.18;101716.03;5129119;27;20030;-69
2022/12/19 00:14:29;;;;;;;54.50;21.10;;;;;;;7.70;63.96;101722.78;5109802;28;20031;-70
2022/12/19 00:16:55;;;;;;;54.57;23.30;;;;;;;7.85;63.66;101723.03;5113370;28;20027;-70
2022/12/19 00:19:20;;;;;;;56.13;23.43;;;;;;;8.15;61.95;101726.94;5131851;28;20065;-69
2022/12/19 00:21:45;;;;;;;57.60;23.73;;;;;;;7.78;62.41;101723.78;5110736;28;20027;-69
2022/12/19 00:24:11;;;;;;;60.57;23.33;;;;;;;8.71;61.36;101707.72;5113278;28;20033;-70
2022/12/19 00:26:38;;;;;;;53.47;23.87;;;;;;;8.19;61.79;101702.69;5111764;28;20027;-69
2022/12/19 00:29:06;;;;;;;56.37;23.97;;;;;;;8.28;62.16;101713.25;5110774;28;20116;-69
2022/12/19 00:31:34;;;;;;;57.87;24.07;;;;;;;8.12;64.40;101695.66;5112978;27;20027;-69
2022/12/19 00:34:00;;;;;;;59.10;24.40;;;;;;;8.27;61.65;101688.03;5135629;27;20360;-69
2022/12/19 00:36:31;;;;;;;62.60;23.90;;;;;;;8.33;62.74;101685.50;5115867;27;20023;-69
2022/12/19 00:39:01;;;;;;;57.47;23.20;;;;;;;8.57;62.91;101694.53;5116352;27;20027;-69
2022/12/19 00:41:28;;;;;;;62.90;24.13;;;;;;;7.92;65.25;101678.00;5116623;27;20466;-69
2022/12/19 00:43:59;;;;;;;49.20;21.47;;;;;;;8.93;61.59;101661.91;5115762;27;20027;-70
2022/12/19 00:46:26;;;;;;;53.20;21.90;;;;;;;8.46;63.76;101676.16;5116203;27;20458;-69
2022/12/19 00:48:51;;;;;;;55.53;22.23;;;;;;;8.19;63.79;101666.22;5116625;27;20015;-70
2022/12/19 00:51:23;;;;;;;53.10;21.00;;;;;;;8.34;63.17;101652.53;5116335;27;20458;-69
2022/12/19 00:53:50;;;;;;;55.57;22.20;;;;;;;8.68;63.40;101659.88;5116384;27;20023;-69
2022/12/19 00:56:21;;;;;;;58.50;22.10;;;;;;;8.43;62.74;101649.16;5115346;27;20034;-70
2022/12/19 00:58:47;;;;;;;56.27;22.37;;;;;;;8.23;64.97;101649.78;5116267;27;20110;-69
2022/12/19 01:01:16;;;;;;;49.97;20.97;;;;;;;8.51;64.70;101644.06;5132566;27;20023;-69
2022/12/19 01:03:42;;;;;;;47.93;22.67;;;;;;;8.34;63.86;101655.13;5113948;28;20024;-70
2022/12/19 01:06:08;;;;;;;52.30;21.73;;;;;;;8.33;64.81;101636.00;5113242;28;20486;-70
2022/12/19 01:08:34;;;;;;;53.30;22.47;;;;;;;8.09;64.53;101635.69;5107432;27;20034;-70
2022/12/19 01:11:01;;;;;;;56.30;21.53;;;;;;;8.88;63.81;101640.13;5115349;27;20046;-69
2022/12/19 01:13:29;;;;;;;49.83;21.80;;;;;;;9.00;62.11;101632.41;5135188;27;20371;-69
2022/12/19 01:15:55;;;;;;;53.20;21.57;;;;;;;8.65;64.16;101632.94;5133147;27;20031;-70
2022/12/19 01:18:21;;;;;;;54.83;22.30;;;;;;;8.82;64.25;101632.25;5132727;27;20027;-69
2022/12/19 01:20:47;;;;;;;52.43;22.83;;;;;;;8.48;66.30;101630.13;5135149;27;20064;-69
2022/12/19 01:23:14;;;;;;;56.47;21.70;;;;;;;7.95;67.55;101630.31;5133246;27;20042;-70
2022/12/19 01:25:40;;;;;;;59.37;21.37;;;;;;;7.92;67.93;101628.53;5115868;27;20027;-70
2022/12/19 01:28:07;;;;;;;51.73;21.13;;;;;;;9.00;63.88;101619.38;5133830;27;20030;-70
2022/12/19 01:30:33;;;;;;;51.90;22.30;;;;;;;8.64;64.52;101625.09;5114334;27;20042;-70
2022/12/19 01:32:59;;;;;;;55.93;22.57;;;;;;;8.18;65.50;101628.00;5115670;27;20041;-70
2022/12/19 01:35:26;;;;;;;52.10;22.03;;;;;;;8.15;70.62;101617.56;5133324;27;20080;-69
2022/12/19 01:37:52;;;;;;;51.17;22.10;;;;;;;8.73;67.38;101611.28;5113294;27;20030;-70
2022/12/19 01:40:19;;;;;;;52.63;22.33;;;;;;;8.92;63.91;101608.00;5134899;27;20023;-70
2022/12/19 01:42:45;;;;;;;53.77;21.50;;;;;;;8.87;64.18;101604.47;5133743;27;20031;-70
2022/12/19 01:45:10;;;;;;;52.37;21.27;;;;;;;9.39;63.28;101595.34;5113826;27;20035;-69
2022/12/19 01:47:53;;;;;;;54.07;22.60;;;;;;;9.37;60.46;101597.03;5115785;27;20070;-69
2022/12/19 01:50:25;;;;;;;52.03;22.50;;;;;;;9.29;62.78;101597.88;5132695;27;20038;-69
2022/12/19 01:52:52;;;;;;;50.22;21.67;;;;;;;8.77;65.01;101605.25;5114606;27;20033;-69
2022/12/19 01:55:19;;;;;;;57.20;23.37;;;;;;;9.04;63.08;101589.00;5132457;27;20104;-69
2022/12/19 01:57:45;;;;;;;52.07;21.47;;;;;;;9.53;60.88;101580.63;5115585;27;20083;-70
2022/12/19 02:00:11;;;;;;;57.30;22.47;;;;;;;9.87;59.62;101586.03;5133413;27;20113;-70
2022/12/19 02:02:42;;;;;;;52.30;21.30;;;;;;;8.88;62.33;101587.09;5115004;27;20047;-70
2022/12/19 02:05:08;;;;;;;51.43;23.07;;;;;;;9.25;62.79;101580.44;5113316;27;20042;-70
2022/12/19 02:07:35;;;;;;;51.23;20.97;;;;;;;9.75;60.70;101570.31;5113877;27;20031;-69
2022/12/19 02:10:01;;;;;;;51.90;21.30;;;;;;;9.28;64.41;101572.63;5115551;27;20027;-69
2022/12/19 02:12:32;;;;;;;48.97;20.67;;;;;;;9.32;64.02;101574.41;5112805;27;20052;-69
2022/12/19 02:15:00;;;;;;;49.70;22.23;;;;;;;9.41;62.15;101565.78;5113937;27;20041;-69
2022/12/19 02:17:44;;;;;;;54.73;21.07;;;;;;;9.11;65.03;101558.63;5115477;27;20455;-70
2022/12/19 02:20:42;;;;;;;49.90;21.20;;;;;;;9.19;65.61;101554.34;5113062;27;20088;-69
2022/12/19 02:23:35;;;;;;;50.00;21.70;;;;;;;9.45;63.58;101530.13;5104636;27;20107;-69
2022/12/19 02:26:10;;;;;;;52.67;21.67;;;;;;;9.15;66.43;101526.47;5128427;27;20122;-69
2022/12/19 02:28:54;;;;;;;53.30;22.47;;;;;;;8.94;68.12;101532.38;5114407;27;20039;-69
2022/12/19 02:31:40;;;;;;;53.30;21.07;;;;;;;9.35;67.07;101518.75;5115378;27;20107;-69
2022/12/19 02:34:16;;;;;;;45.97;19.67;;;;;;;9.43;66.58;101513.59;5113985;27;20083;-69
2022/12/19 02:37:03;;;;;;;43.83;19.73;;;;;;;9.28;66.20;101512.63;5114355;27;20026;-69
2022/12/19 02:39:35;;;;;;;44.37;18.60;;;;;;;9.41;66.28;101511.00;5130097;27;20039;-69
2022/12/19 02:42:02;;;;;;;45.95;20.73;;;;;;;9.55;66.71;101511.06;5114726;27;20420;-70
2022/12/19 02:44:50;;;;;;;39.17;18.80;;;;;;;10.25;65.34;101503.44;5132486;27;20386;-70
2022/12/19 02:47:17;;;;;;;42.97;18.53;;;;;;;9.63;66.80;101503.25;5114538;27;20481;-69
2022/12/19 02:49:42;;;;;;;44.80;19.07;;;;;;;9.52;65.76;101511.06;5132652;27;20057;-70
2022/12/19 02:52:31;;;;;;;45.40;20.20;;;;;;;10.17;64.45;101490.38;5131236;27;20019;-70
2022/12/19 02:55:03;;;;;;;44.10;19.23;;;;;;;9.80;67.43;101495.50;5114769;27;20062;-69
2022/12/19 02:57:49;;;;;;;37.67;17.08;;;;;;;9.47;68.44;101494.50;5131882;27;20076;-70
2022/12/19 03:00:21;;;;;;;35.50;16.03;;;;;;;10.01;65.02;101485.13;5114550;27;20046;-69
2022/12/19 03:03:20;;;;;;;33.80;16.35;;;;;;;9.77;64.84;101487.66;5113180;27;20413;-69
2022/12/19 03:06:21;;;;;;;36.53;17.57;;;;;;;9.56;68.36;101486.72;5108556;27;20031;-69
2022/12/19 03:08:58;;;;;;;35.23;16.40;;;;;;;10.18;65.62;101481.69;5132429;27;20068;-70
2022/12/19 03:11:26;;;;;;;38.47;17.27;;;;;;;9.48;68.00;101478.84;5114466;27;20497;-69
2022/12/19 03:14:03;;;;;;;38.60;16.53;;;;;;;9.84;67.72;101485.06;5130852;27;20026;-70
2022/12/19 03:16:29;;;;;;;32.80;16.40;;;;;;;10.32;63.71;101474.72;5131133;27;20030;-70
2022/12/19 03:18:56;;;;;;;35.20;16.77;;;;;;;10.03;64.07;101482.53;5114309;27;20026;-70
2022/12/19 03:21:28;;;;;;;31.77;15.57;;;;;;;10.16;65.42;101481.66;5131251;27;20042;-69
2022/12/19 03:23:55;;;;;;;29.50;15.27;;;;;;;10.04;64.98;101467.72;5130564;27;20023;-70
2022/12/19 03:26:24;;;;;;;31.23;15.47;;;;;;;9.91;67.26;101466.81;5108189;27;20037;-69
2022/12/19 03:28:55;;;;;;;33.53;16.03;;;;;;;10.75;63.23;101467.81;5108865;27;20110;-69
2022/12/19 03:31:25;;;;;;;34.30;15.73;;;;;;;10.83;63.09;101461.69;5113129;27;20034;-70
2022/12/19 03:33:56;;;;;;;29.67;16.00;;;;;;;10.93;61.96;101467.78;5131277;27;20034;-70
2022/12/19 03:36:27;;;;;;;33.07;16.17;;;;;;;9.86;66.45;101464.19;5104770;27;20541;-70
2022/12/19 03:38:55;;;;;;;31.67;14.63;;;;;;;10.69;65.84;101463.47;5111374;27;20023;-69
2022/12/19 03:44:10;;;;;;;33.00;15.00;;;;;;;9.96;68.58;101471.19;5132710;27;20030;-69
2022/12/19 03:46:42;;;;;;;34.07;16.23;;;;;;;10.49;64.82;101455.63;5133185;27;20049;-69
2022/12/19 03:49:07;;;;;;;30.73;16.60;;;;;;;10.37;66.13;101473.91;5131655;27;20650;-69
2022/12/19 03:51:54;;;;;;;32.23;15.33;;;;;;;10.49;65.41;101460.84;5131826;27;20115;-70
2022/12/19 03:54:27;;;;;;;27.33;14.77;;;;;;;10.45;68.93;101464.31;5110929;27;20031;-70
2022/12/19 03:57:19;;;;;;;30.17;15.73;;;;;;;10.25;70.16;101467.75;5112228;27;20062;-70
2022/12/19 03:59:50;;;;;;;27.98;15.20;;;;;;;10.17;67.68;101459.03;5112348;27;20047;-70
2022/12/19 04:02:18;;;;;;;27.73;15.43;;;;;;;10.88;64.64;101442.50;5131213;27;20402;-70
2022/12/19 04:04:47;;;;;;;30.80;15.47;;;;;;;11.14;64.43;101445.06;5112001;28;20382;-70
2022/12/19 04:07:16;;;;;;;29.47;15.77;;;;;;;10.84;67.36;101446.91;5129840;27;20031;-70
2022/12/19 04:09:44;;;;;;;25.80;14.43;;;;;;;10.17;71.06;101449.44;5113347;27;20438;-70
2022/12/19 04:12:14;;;;;;;28.90;15.30;;;;;;;10.75;67.57;101452.13;5113187;28;20043;-70
2022/12/19 04:14:40;;;;;;;27.83;16.07;;;;;;;10.90;66.25;101439.03;5112319;28;20105;-70
2022/12/19 04:17:37;;;;;;;35.50;17.90;;;;;;;10.49;69.52;101448.63;5112685;28;20171;-70
2022/12/19 04:20:04;;;;;;;27.13;15.57;;;;;;;10.43;67.75;101440.81;5129555;28;20091;-70
2022/12/19 04:22:35;;;;;;;32.03;17.27;;;;;;;11.11;67.13;101445.09;5113356;28;20367;-70
2022/12/19 04:25:08;;;;;;;29.83;16.67;;;;;;;11.42;65.68;101434.53;5112654;28;20031;-70
2022/12/19 04:27:35;;;;;;;29.13;16.08;;;;;;;11.16;64.53;101438.09;5110422;28;20083;-70
2022/12/19 04:30:02;;;;;;;28.50;15.27;;;;;;;10.56;69.01;101453.88;5112477;28;20076;-70
2022/12/19 04:32:31;;;;;;;29.23;17.00;;;;;;;11.08;66.22;101445.97;5113476;28;20039;-70
2022/12/19 04:34:58;;;;;;;30.10;16.80;;;;;;;10.89;67.04;101449.50;5129501;28;20031;-70
2022/12/19 04:37:24;;;;;;;30.07;16.37;;;;;;;11.58;65.59;101430.97;5131308;28;20016;-70
2022/12/19 04:39:49;;;;;;;26.03;15.63;;;;;;;10.40;70.15;101445.16;5112253;28;20023;-70
2022/12/19 04:42:15;;;;;;;27.27;16.33;;;;;;;10.92;69.20;101434.69;5127610;28;20408;-70
2022/12/19 04:44:40;;;;;;;27.77;15.67;;;;;;;11.22;67.54;101435.44;5112015;28;20118;-70
2022/12/19 04:47:06;;;;;;;28.37;16.00;;;;;;;11.31;69.80;101430.19;5113206;28;20030;-70
2022/12/19 04:49:32;;;;;;;25.73;15.23;;;;;;;11.83;66.58;101430.84;5110230;28;20015;-70
2022/12/19 04:51:57;;;;;;;29.17;17.03;;;;;;;11.89;65.58;101430.78;5113398;28;20027;-70
2022/12/19 04:54:22;;;;;;;28.80;16.40;;;;;;;12.31;64.09;101427.91;5109671;28;20019;-70
2022/12/19 04:56:48;;;;;;;25.03;15.53;;;;;;;11.87;64.27;101432.56;5130388;28;20027;-70
2022/12/19 04:59:13;;;;;;;29.90;17.07;;;;;;;11.46;67.46;101429.28;5112289;28;20397;-71
2022/12/19 05:01:39;;;;;;;27.47;16.53;;;;;;;12.13;65.48;101423.69;5111713;28;20047;-70
2022/12/19 05:04:04;;;;;;;26.93;16.37;;;;;;;12.04;64.68;101430.72;5111584;28;20557;-70
2022/12/19 05:06:30;;;;;;;29.20;16.40;;;;;;;12.21;65.33;101408.78;5130508;28;20656;-70
2022/12/19 05:08:55;;;;;;;23.63;15.00;;;;;;;11.73;69.92;101430.00;5128925;28;20042;-70
2022/12/19 05:11:20;;;;;;;26.60;14.93;;;;;;;11.85;68.57;101408.13;5112402;28;20037;-70
2022/12/19 05:13:48;;;;;;;25.50;15.20;;;;;;;11.14;73.95;101418.91;5130452;27;20022;-71
2022/12/19 05:16:14;;;;;;;23.50;15.43;;;;;;;12.05;69.09;101419.38;5111365;28;20066;-70
2022/12/19 05:18:40;;;;;;;26.43;15.37;;;;;;;11.63;72.02;101412.63;5112655;27;20046;-70
2022/12/19 05:21:06;;;;;;;27.63;16.47;;;;;;;12.21;66.61;101414.00;5134880;27;20029;-71
2022/12/19 05:23:31;;;;;;;25.80;15.33;;;;;;;11.30;74.03;101404.88;5133630;27;20026;-71
2022/12/19 05:25:58;;;;;;;26.93;15.23;;;;;;;11.26;75.10;101403.16;5131803;27;20103;-70
2022/12/19 05:28:23;;;;;;;27.30;16.63;;;;;;;11.31;73.33;101405.78;5112900;27;20035;-70
2022/12/19 05:30:49;;;;;;;26.77;16.13;;;;;;;12.00;72.13;101412.44;5111818;27;20038;-70
2022/12/19 05:33:14;;;;;;;26.40;17.23;;;;;;;11.81;70.84;101409.00;5114200;28;20077;-70
2022/12/19 05:35:39;;;;;;;25.27;15.90;;;;;;;11.92;71.70;101417.66;5114380;28;20062;-70
2022/12/19 05:38:05;;;;;;;29.53;16.37;;;;;;;11.83;74.04;101404.66;5113695;28;20505;-70
2022/12/19 05:40:30;;;;;;;24.97;16.80;;;;;;;12.12;72.67;101417.59;5114017;27;20031;-71
2022/12/19 05:42:56;;;;;;;29.77;17.43;;;;;;;11.80;74.20;101407.28;5133192;27;20083;-70
2022/12/19 05:45:21;;;;;;;28.73;16.27;;;;;;;12.45;70.72;101435.69;5114785;27;20109;-70
2022/12/19 05:47:47;;;;;;;29.97;17.43;;;;;;;12.37;70.89;101412.16;5134625;27;20579;-70
2022/12/19 05:50:17;;;;;;;26.43;16.53;;;;;;;12.84;70.01;101412.59;5134614;27;20026;-70
2022/12/19 05:52:43;;;;;;;30.13;16.57;;;;;;;12.34;69.85;101407.81;5115222;27;20037;-70
2022/12/19 05:55:09;;;;;;;24.70;15.73;;;;;;;12.86;67.63;101416.09;5115202;27;20114;-71
2022/12/19 05:57:34;;;;;;;25.67;15.23;;;;;;;12.20;72.09;101399.19;5131927;27;20479;-71
2022/12/19 06:00:00;;;;;;;27.77;15.77;;;;;;;11.87;75.30;101424.72;5114081;27;20027;-71
2022/12/19 06:02:26;;;;;;;29.03;16.27;;;;;;;12.68;66.90;101407.50;5134112;27;20469;-70
2022/12/19 06:04:51;;;;;;;26.43;14.60;;;;;;;12.47;69.55;101423.44;5132746;27;20027;-71
2022/12/19 06:07:17;;;;;;;32.07;16.13;;;;;;;12.43;70.09;101432.19;5131353;27;20070;-70
2022/12/19 06:09:43;;;;;;;24.17;14.03;;;;;;;12.25;69.28;101413.09;5134219;27;20030;-71
2022/12/19 06:12:08;;;;;;;30.07;14.90;;;;;;;12.86;68.96;101416.09;5133412;27;20023;-70
2022/12/19 06:14:34;;;;;;;22.83;14.77;;;;;;;12.17;71.55;101420.16;5131704;27;20111;-71
2022/12/19 06:16:59;;;;;;;22.90;14.00;;;;;;;12.42;73.74;101435.69;5131820;27;20031;-70
2022/12/19 06:19:24;;;;;;;20.07;13.67;;;;;;;12.55;71.84;101411.13;5113798;27;20075;-71
2022/12/19 06:21:50;;;;;;;23.07;13.37;;;;;;;12.00;74.53;101413.28;5132087;27;20394;-71
2022/12/19 06:24:16;;;;;;;22.30;13.87;;;;;;;12.18;78.15;101422.75;5114380;27;20493;-71
2022/12/19 06:26:42;;;;;;;26.03;14.10;;;;;;;12.68;71.49;101411.88;5130648;27;20107;-71
2022/12/19 06:29:07;;;;;;;24.23;14.40;;;;;;;12.87;71.39;101415.19;5113403;27;20478;-71
2022/12/19 06:31:33;;;;;;;23.20;14.07;;;;;;;12.71;71.42;101396.97;5114790;27;20056;-70
2022/12/19 06:33:58;;;;;;;23.63;13.53;;;;;;;12.41;76.48;101420.88;5113123;27;20027;-71
2022/12/19 06:36:26;;;;;;;26.73;13.77;;;;;;;12.27;72.32;101408.75;5114368;27;20033;-71
2022/12/19 06:38:54;;;;;;;21.63;13.17;;;;;;;12.85;70.32;101401.22;5114997;27;20112;-71
2022/12/19 06:44:06;;;;;;;24.33;13.73;;;;;;;12.62;71.01;101401.44;5129781;27;20050;-72
2022/12/19 06:46:32;;;;;;;22.40;13.07;;;;;;;12.32;75.94;101406.97;5115541;27;20050;-71
2022/12/19 06:48:58;;;;;;;25.70;14.40;;;;;;;13.43;68.09;101417.22;5121732;27;20042;-72
2022/12/19 06:51:23;;;;;;;22.17;13.33;;;;;;;12.59;70.44;101410.22;5132246;27;20027;-72
2022/12/19 06:53:49;;;;;;;26.67;13.43;;;;;;;13.25;67.79;101408.66;5110659;27;20020;-71
2022/12/19 06:56:16;;;;;;;21.10;13.67;;;;;;;12.84;70.18;101423.09;5112672;27;20082;-71
2022/12/19 06:58:42;;;;;;;25.70;13.70;;;;;;;12.72;71.90;101413.56;5108177;27;20493;-72
2022/12/19 07:01:19;;;;;;;23.20;13.23;;;;;;;12.79;69.70;101419.63;5113066;27;20114;-72
2022/12/19 07:03:46;;;;;;;23.40;13.23;;;;;;;12.56;72.49;101433.84;5113939;27;20031;-72
2022/12/19 07:06:11;;;;;;;22.00;12.97;;;;;;;12.78;71.53;101417.91;5114669;27;20498;-72
2022/12/19 07:08:37;;;;;;;18.50;12.20;;;;;;;13.18;70.70;101422.72;5108855;27;20023;-72
2022/12/19 07:11:02;;;;;;;20.13;11.57;;;;;;;13.09;68.56;101417.59;5113794;27;20164;-72
2022/12/19 07:13:28;;;;;;;20.67;13.20;;;;;;;12.96;71.21;101422.97;5112745;27;20466;-72
2022/12/19 07:15:55;;;;;;;19.37;11.53;;;;;;;12.88;69.79;101423.03;5113635;27;20443;-72
2022/12/19 07:18:21;;;;;;;21.23;11.20;;;;;;;12.55;71.28;101442.59;5112946;27;20019;-71
2022/12/19 07:20:49;;;;;;;18.77;11.90;;;;;;;12.53;70.93;101444.38;5114429;27;20489;-72
2022/12/19 07:23:18;;;;;;;20.83;12.43;;;;;;;12.99;72.19;101428.16;5112629;27;20553;-71
2022/12/19 07:25:44;;;;;;;19.37;11.60;;;;;;;13.19;70.34;101435.84;5113019;27;20034;-72
2022/12/19 07:28:09;;;;;;;18.43;11.20;;;;;;;12.62;72.51;101446.88;5130946;27;20056;-72
2022/12/19 07:30:35;;;;;;;19.53;12.30;;;;;;;12.77;71.39;101437.16;5130067;27;20386;-72
2022/12/19 07:33:00;;;;;;;15.17;10.90;;;;;;;12.98;68.83;101436.06;5112894;27;20114;-72
2022/12/19 07:35:25;;;;;;;16.07;10.87;;;;;;;13.68;69.33;101442.28;5112099;27;20022;-72
2022/12/19 07:37:51;;;;;;;19.47;11.27;;;;;;;13.36;70.62;101446.16;5109068;27;20364;-72
2022/12/19 07:40:17;;;;;;;19.47;11.37;;;;;;;13.39;66.95;101453.13;5112953;27;20452;-72
2022/12/19 07:42:43;;;;;;;19.77;11.80;;;;;;;13.33;68.94;101448.81;5111461;27;20032;-72
2022/12/19 07:45:09;;;;;;;18.87;11.47;;;;;;;13.55;68.22;101454.69;5113397;27;20474;-72
2022/12/19 07:47:34;;;;;;;17.23;11.10;;;;;;;13.38;69.03;101451.41;5132150;27;20042;-72
2022/12/19 07:50:00;;;;;;;24.80;11.20;;;;;;;13.01;70.31;101447.41;5112963;27;20031;-72
2022/12/19 07:52:26;;;;;;;19.37;10.60;;;;;;;13.49;66.19;101451.28;5112146;27;20458;-71
2022/12/19 07:54:52;;;;;;;23.63;11.30;;;;;;;13.51;67.62;101457.38;5113245;27;20531;-72
2022/12/19 07:57:18;;;;;;;18.70;11.00;;;;;;;13.55;66.70;101467.81;5127050;27;20118;-71
2022/12/19 07:59:43;;;;;;;19.93;11.33;;;;;;;13.37;69.88;101465.44;5113177;27;20023;-72
2022/12/19 08:02:09;;;;;;;17.50;10.63;;;;;;;13.51;68.26;101467.91;5129328;27;20092;-72
2022/12/19 08:04:34;;;;;;;15.17;10.47;;;;;;;13.70;66.78;101474.66;5111979;28;20189;-71
2022/12/19 08:07:01;;;;;;;17.53;9.80;;;;;;;13.79;66.45;101467.53;5131261;27;20493;-71
2022/12/19 08:09:26;;;;;;;17.37;9.93;;;;;;;13.65;66.77;101473.81;5112482;27;20035;-71
2022/12/19 08:11:53;;;;;;;21.53;10.90;;;;;;;13.43;68.15;101469.75;5128574;27;20473;-71
2022/12/19 08:14:18;;;;;;;18.77;10.10;;;;;;;12.93;72.50;101470.22;5112544;28;20031;-71
2022/12/19 08:16:44;;;;;;;19.27;10.70;;;;;;;13.04;71.51;101468.38;5112992;28;20027;-71
2022/12/19 08:19:09;;;;;;;17.23;10.90;;;;;;;13.54;68.14;101475.72;5129373;27;20546;-71
2022/12/19 08:21:35;;;;;;;19.37;11.33;;;;;;;13.27;71.26;101474.25;5100496;28;20031;-71
2022/12/19 08:24:00;;;;;;;17.23;11.33;;;;;;;12.99;70.53;101480.66;5129360;27;20035;-72
2022/12/19 08:26:26;;;;;;;17.03;11.37;;;;;;;13.58;69.00;101485.31;5109891;28;20037;-72
2022/12/19 08:28:56;;;;;;;18.90;10.03;;;;;;;13.46;68.37;101480.19;5131730;28;20118;-72
2022/12/19 08:31:24;;;;;;;20.17;10.97;;;;;;;13.69;66.78;101482.56;5131058;27;20122;-71
2022/12/19 08:33:53;;;;;;;16.27;9.63;;;;;;;13.21;71.47;101477.81;5112246;28;20023;-71
2022/12/19 08:36:20;;;;;;;19.93;11.53;;;;;;;13.76;68.57;101478.94;5130834;28;20043;-71
2022/12/19 08:38:46;;;;;;;18.10;11.43;;;;;;;13.83;67.15;101477.13;5112493;28;20023;-72
2022/12/19 08:41:13;;;;;;;18.73;11.43;;;;;;;13.71;67.11;101483.38;5110956;27;20508;-72
2022/12/19 08:43:38;;;;;;;18.07;11.60;;;;;;;14.17;65.67;101479.28;5110301;28;20449;-72
2022/12/19 08:46:05;;;;;;;16.07;11.47;;;;;;;14.38;64.51;101476.34;5112646;28;20066;-71
2022/12/19 08:48:32;;;;;;;21.10;10.83;;;;;;;13.22;70.57;101490.06;5128098;28;20035;-72
2022/12/19 08:51:03;;;;;;;16.10;11.53;;;;;;;13.68;67.16;101486.06;5111562;28;20034;-72
2022/12/19 08:53:31;;;;;;;14.07;9.93;;;;;;;13.37;67.21;101492.53;5115338;27;20027;-72
2022/12/19 08:55:59;;;;;;;16.90;10.10;;;;;;;13.52;67.88;101486.25;5135531;27;20034;-72
2022/12/19 08:58:26;;;;;;;18.17;10.23;;;;;;;13.37;67.83;101489.06;5117071;27;20193;-72
2022/12/19 09:00:52;;;;;;;18.67;11.63;;;;;;;13.46;70.08;101488.09;5115796;27;20469;-72
2022/12/19 09:03:19;;;;;;;14.30;9.93;;;;;;;13.70;70.53;101477.28;5114673;27;20063;-72
2022/12/19 09:05:44;;;;;;;16.37;10.10;;;;;;;13.02;70.04;101477.13;5112035;27;20023;-72
2022/12/19 09:08:09;;;;;;;17.50;10.33;;;;;;;13.76;66.54;101480.72;5113195;27;20249;-72
2022/12/19 09:10:36;;;;;;;15.03;10.73;;;;;;;13.53;67.97;101481.84;5116824;27;20027;-72
2022/12/19 09:13:02;;;;;;;19.53;11.47;;;;;;;13.72;68.80;101488.66;5115444;27;20416;-71
2022/12/19 09:15:29;;;;;;;17.33;10.10;;;;;;;13.45;69.71;101488.97;5112116;27;20043;-72
2022/12/19 09:17:54;;;;;;;17.03;10.10;;;;;;;13.38;69.70;101489.03;5112878;27;20019;-72
2022/12/19 09:20:20;;;;;;;17.63;10.47;;;;;;;13.38;70.30;101499.53;5111479;27;20037;-72
2022/12/19 09:22:45;;;;;;;15.33;10.17;;;;;;;14.25;65.44;101490.56;5129005;27;20110;-72
2022/12/19 09:25:11;;;;;;;19.30;11.13;;;;;;;13.80;65.74;101500.81;5124069;27;20430;-72
2022/12/19 09:27:37;;;;;;;20.43;10.37;;;;;;;13.29;69.82;101499.59;5115719;27;20023;-72
2022/12/19 09:30:02;;;;;;;14.80;10.17;;;;;;;13.62;67.55;101497.50;5131267;27;20046;-72
2022/12/19 09:32:29;;;;;;;17.80;9.90;;;;;;;13.24;70.69;101504.91;5110193;27;20030;-72
2022/12/19 09:34:54;;;;;;;25.47;13.40;;;;;;;13.89;68.37;101503.31;5132550;27;20015;-72
2022/12/19 09:37:19;;;;;;;15.70;9.73;;;;;;;12.94;75.29;101508.72;5100417;27;20030;-72
2022/12/19 09:39:46;;;;;;;17.37;10.43;;;;;;;13.90;70.38;101502.41;5110341;27;20414;-72
2022/12/19 09:42:33;;;;;;;15.17;9.80;;;;;;;13.56;70.65;101508.13;5114111;27;20050;-72
2022/12/19 09:45:17;;;;;;;15.70;9.37;;;;;;;13.82;70.89;101509.53;5104259;27;20521;-72
2022/12/19 09:47:45;;;;;;;17.37;10.70;;;;;;;13.69;68.59;101503.56;5109710;27;20483;-72
2022/12/19 09:50:40;;;;;;;20.77;11.70;;;;;;;13.86;70.74;101501.59;5114722;27;20108;-72
2022/12/19 09:53:37;;;;;;;13.23;9.80;;;;;;;14.41;68.29;101489.44;5112184;27;20038;-72
2022/12/19 09:56:09;;;;;;;15.63;10.10;;;;;;;13.51;68.86;101488.91;5110871;27;20066;-72
2022/12/19 09:58:46;;;;;;;15.38;10.07;;;;;;;13.94;70.98;101498.84;5132723;27;20033;-72
2022/12/19 10:01:21;;;;;;;14.13;9.87;;;;;;;13.65;71.13;101494.00;5133176;27;20030;-72
2022/12/19 10:03:57;;;;;;;15.37;10.00;;;;;;;14.08;65.57;101491.66;5113532;27;20019;-72
2022/12/19 10:06:23;;;;;;;14.83;9.90;;;;;;;13.85;69.79;101505.13;5113240;27;20026;-72
2022/12/19 10:08:51;;;;;;;17.20;9.23;;;;;;;13.43;72.18;101501.25;5114986;27;20016;-72
2022/12/19 10:11:16;;;;;;;14.07;9.17;;;;;;;13.64;72.06;101508.88;5112425;27;20034;-72
2022/12/19 10:13:53;;;;;;;15.97;9.10;;;;;;;14.04;68.10;101499.59;5112479;27;20027;-71
2022/12/19 10:16:59;;;;;;;17.83;9.00;;;;;;;14.21;67.37;101494.97;5112707;27;20023;-72
2022/12/19 10:19:44;;;;;;;15.40;9.37;;;;;;;13.49;70.03;101501.16;5114279;27;20023;-72
2022/12/19 10:22:21;;;;;;;13.33;8.97;;;;;;;14.05;68.42;101507.50;5133573;27;20107;-71
2022/12/19 10:25:05;;;;;;;16.80;8.33;;;;;;;13.84;68.74;101492.84;5113541;27;20019;-71
2022/12/19 10:27:36;;;;;;;14.27;9.27;;;;;;;13.44;70.04;101500.38;5111171;27;20034;-72
2022/12/19 10:30:01;;;;;;;17.13;9.07;;;;;;;13.59;72.06;101502.81;5113637;27;20083;-71
2022/12/19 10:32:56;;;;;;;13.83;11.07;;;;;;;14.05;67.35;101507.50;5114274;27;20035;-71
2022/12/19 10:35:27;;;;;;;12.13;8.03;;;;;;;13.88;68.36;101499.81;5112727;27;20019;-71
2022/12/19 10:37:59;;;;;;;14.20;8.73;;;;;;;13.61;69.63;101501.03;5114513;27;20134;-72
2022/12/19 10:40:35;;;;;;;15.88;8.98;;;;;;;13.64;70.96;101506.25;5112551;27;20027;-72
2022/12/19 10:43:10;;;;;;;13.80;8.17;;;;;;;13.34;71.97;101497.81;5094976;27;20031;-72
2022/12/19 10:45:42;;;;;;;13.77;8.67;;;;;;;13.73;71.74;101494.75;5112348;27;20096;-71
2022/12/19 10:48:14;;;;;;;16.92;9.23;;;;;;;14.45;65.20;101486.75;5130843;27;20119;-72
2022/12/19 10:50:39;;;;;;;13.53;7.90;;;;;;;12.98;74.77;101491.16;5133107;27;20050;-72
2022/12/19 10:53:06;;;;;;;14.63;8.93;;;;;;;14.27;68.66;101486.13;5132816;27;20528;-72
2022/12/19 10:56:10;;;;;;;11.20;7.57;;;;;;;13.59;73.32;101476.53;5111898;27;20411;-72
2022/12/19 10:58:36;;;;;;;12.60;8.50;;;;;;;13.98;70.98;101478.66;5098459;27;20096;-72
2022/12/19 11:01:11;;;;;;;13.60;7.40;;;;;;;13.65;73.20;101473.81;5113423;27;20026;-71
2022/12/19 11:03:38;;;;;;;14.50;8.70;;;;;;;14.00;71.09;101477.75;5114541;27;20031;-72
2022/12/19 11:06:05;;;;;;;12.90;7.93;;;;;;;13.66;71.93;101475.56;5110768;27;20478;-72
2022/12/19 11:08:33;;;;;;;18.40;9.00;;;;;;;14.21;69.66;101484.47;5110036;27;20030;-72
2022/12/19 11:11:04;;;;;;;11.33;7.90;;;;;;;14.17;71.20;101472.25;5112073;27;20069;-71
2022/12/19 11:13:33;;;;;;;15.03;7.13;;;;;;;13.42;73.81;101494.25;5132167;27;20023;-72
2022/12/19 11:16:01;;;;;;;14.40;8.07;;;;;;;14.84;67.92;101481.75;5129500;27;20439;-71
2022/12/19 11:18:38;;;;;;;12.10;7.57;;;;;;;13.56;79.10;101474.81;5132623;27;20023;-72
2022/12/19 11:21:26;;;;;;;13.27;7.60;;;;;;;14.19;72.94;101482.75;5131955;27;20023;-72
2022/12/19 11:23:58;;;;;;;12.30;8.90;;;;;;;14.30;74.16;101486.09;5113690;27;20074;-72
2022/12/19 11:26:32;;;;;;;13.40;7.87;;;;;;;14.01;74.67;101484.75;5112212;27;20038;-72
2022/12/19 11:29:03;;;;;;;11.47;7.50;;;;;;;14.31;71.53;101481.69;5111205;27;20039;-72